チャーチル の空港の天気 - METARとTAF

チャーチル空港 ( CYYQ / YYQ ) - カナダ マニトバ州Churchill
飛行場実況気象(Metar)
観測時間12/14 00:00 CST (12/14 06:00 UTC)
風向・風速南西 3m/s
視程10km以上
天気現象
全天の8割程度の雲 雲底高度 3660m
気温-10℃
湿度92%
気圧995.3hPa
METARCYYQ 140600Z 22006KT 15SM BKN120 M10/M11 A2938 RMK AC5 SLP953
過去の天気等 Google飛行場航空写真 Wunderground天気予報

過去48時間のMETAR

飛行場予報(TAF)
発表時間: 12/13 23:38 CST (12/14 05:38 UTC)
予報対象時間: 14日0時 CST ~ 15日0時 CST
風向・風速南西 4m/s
視程10km以上
少しの雲 雲底高度 90m
14日0時 CST ~ 14日2時 CST に一時的に
全天の8割程度の雲 雲底高度 2740m
14日2時 CST から
風向・風速南西 5m/s
視程10km以上
全天の4割程度の雲 雲底高度 610m
全天の8割程度の雲 雲底高度 2440m
14日2時 CST ~ 14日8時 CST に一時的に
視程4830m
天気現象弱い雪
全天の8割程度の雲 雲底高度 610m
14日4時 CST ~ 14日6時 CST に徐々に
風向・風速西北西 4m/s
14日8時 CST から
風向・風速西北西 8m/s 瞬間風速 13m/s
視程10km以上
全天の8割程度の雲 雲底高度 460m
14日8時 CST ~ 14日14時 CST に一時的に
全天の4割程度の雲 雲底高度 610m
14日14時 CST から
風向・風速西 8m/s 瞬間風速 13m/s
視程10km以上
全天の4割程度の雲 雲底高度 610m
TAF CYYQ 140538Z 1406/1506 22008KT P6SM FEW003
TEMPO 1406/1408 BKN090
FM140800 23010KT P6SM SCT020 BKN080
TEMPO 1408/1414 3SM -SN BKN020
BECMG 1410/1412 30008KT
FM141400 30015G25KT P6SM BKN015
TEMPO 1414/1420 SCT020
FM142000 28015G25KT P6SM SCT020 RMK NXT FCST BY 141200Z